Pagina principale
METAR-TAF:

METAR-TAF

Aeroporti :

Aeroporto di Châlons-Vatry

Châlons-en-Champagne, Francia

latitudine: 48-46-34N, longitudine: 004-11-04E, altezza: 179 m

Osservazione

Il bollettino è stato emesso 36 minuti fa, alle 22:00 UTC
Vento 6 kt da nord-est
Temperature 21°C
Umidità 56%
Pressione 1022 hPa
Visibilità 10 km o più
nessuna nube inferiore a 1500 m e nessun cumulonembo

METAR: LFOK 222200Z AUTO 05006KT CAVOK 21/12 Q1022 NOSIG

Ora: 00:36 (22:36 UTC)

Previsione

Il bollettino è stato emesso 5 ore e 36 minuti fa, alle 17:00 UTC
Previsione valida dal 22 alle 18 UTC al 23 alle 18 UTC
Vento 3 kt da direzioni variabili
Visibilità 10 km o più
nessuna nube inferiore a 1500 m e nessun cumulonembo
Evoluzione graduale
dal 23 alle 10 UTC al 23 alle 12 UTC
Vento 13 kt da est/nord-est

TAF: LFOK 221700Z 2218/2318 VRB03KT CAVOK BECMG 2310/2312 07013KT

Osservazioni e previsioni meteorologiche di più di 4000 aeroporti (messaggi METAR e TAF).

Le stazioni disponibili sono rappresentate dai dischi gialli e rossi sulla carta.

Puntare il mouse per vedere il nome della stazione.

Clicca sopra per visualizzare le osservazioni e previsioni meteorologiche.

Per cambiare la mappa : fare clic sui pulsanti verdi con una croce nera per ingrandire, il pulsante verde con un trattino per diminuire, o sulla freccia verde per le mappe adiacenti.


METAR-TAF: